sensor_id;sensor_type;location;lat;lon;timestamp;P1;durP1;ratioP1;P2;durP2;ratioP2
1625;SDS011;806;48.770;9.156;2023-04-07T00:01:04;3.03;;;1.60;;
1625;SDS011;806;48.770;9.156;2023-04-07T00:03:31;2.70;;;1.40;;
1625;SDS011;806;48.770;9.156;2023-04-07T00:05:59;2.60;;;1.40;;
1625;SDS011;806;48.770;9.156;2023-04-07T00:08:28;3.70;;;1.57;;
1625;SDS011;806;48.770;9.156;2023-04-07T00:10:55;3.97;;;1.58;;
1625;SDS011;806;48.770;9.156;2023-04-07T00:13:22;2.67;;;1.48;;
1625;SDS011;806;48.770;9.156;2023-04-07T00:15:50;2.42;;;1.50;;
1625;SDS011;806;48.770;9.156;2023-04-07T00:18:17;2.58;;;1.70;;
1625;SDS011;806;48.770;9.156;2023-04-07T00:20:44;4.53;;;1.90;;
1625;SDS011;806;48.770;9.156;2023-04-07T00:23:11;2.57;;;1.40;;
1625;SDS011;806;48.770;9.156;2023-04-07T00:25:40;3.25;;;1.60;;
1625;SDS011;806;48.770;9.156;2023-04-07T00:28:07;2.28;;;1.50;;
1625;SDS011;806;48.770;9.156;2023-04-07T00:30:34;3.10;;;1.90;;
1625;SDS011;806;48.770;9.156;2023-04-07T00:33:01;3.10;;;1.80;;
1625;SDS011;806;48.770;9.156;2023-04-07T00:35:29;3.10;;;1.90;;
1625;SDS011;806;48.770;9.156;2023-04-07T00:37:56;2.30;;;1.50;;
1625;SDS011;806;48.770;9.156;2023-04-07T00:40:23;2.50;;;1.50;;
1625;SDS011;806;48.770;9.156;2023-04-07T00:42:52;2.70;;;1.70;;
1625;SDS011;806;48.770;9.156;2023-04-07T00:45:19;3.08;;;1.65;;
1625;SDS011;806;48.770;9.156;2023-04-07T00:47:46;2.25;;;1.50;;
1625;SDS011;806;48.770;9.156;2023-04-07T00:50:14;2.78;;;1.40;;
1625;SDS011;806;48.770;9.156;2023-04-07T00:52:41;3.50;;;1.70;;
1625;SDS011;806;48.770;9.156;2023-04-07T00:55:08;2.63;;;1.70;;
1625;SDS011;806;48.770;9.156;2023-04-07T00:57:35;2.72;;;1.75;;
1625;SDS011;806;48.770;9.156;2023-04-07T01:00:05;3.03;;;1.58;;
1625;SDS011;806;48.770;9.156;2023-04-07T01:02:35;4.25;;;1.80;;
1625;SDS011;806;48.770;9.156;2023-04-07T01:05:08;2.70;;;1.20;;
1625;SDS011;806;48.770;9.156;2023-04-07T01:07:43;2.20;;;1.60;;
1625;SDS011;806;48.770;9.156;2023-04-07T01:10:22;2.60;;;1.73;;
1625;SDS011;806;48.770;9.156;2023-04-07T01:12:56;3.28;;;1.60;;
1625;SDS011;806;48.770;9.156;2023-04-07T01:15:32;3.42;;;1.73;;
1625;SDS011;806;48.770;9.156;2023-04-07T01:18:03;3.80;;;1.80;;
1625;SDS011;806;48.770;9.156;2023-04-07T01:20:36;2.90;;;1.50;;
1625;SDS011;806;48.770;9.156;2023-04-07T01:23:05;3.40;;;2.00;;
1625;SDS011;806;48.770;9.156;2023-04-07T01:31:34;3.90;;;1.80;;
1625;SDS011;806;48.770;9.156;2023-04-07T01:34:05;2.85;;;1.50;;
1625;SDS011;806;48.770;9.156;2023-04-07T01:36:34;2.97;;;1.70;;
1625;SDS011;806;48.770;9.156;2023-04-07T01:39:02;2.90;;;1.30;;
1625;SDS011;806;48.770;9.156;2023-04-07T01:41:30;2.67;;;1.50;;
1625;SDS011;806;48.770;9.156;2023-04-07T01:43:58;3.33;;;1.70;;
1625;SDS011;806;48.770;9.156;2023-04-07T01:46:27;2.30;;;1.65;;
1625;SDS011;806;48.770;9.156;2023-04-07T01:48:56;4.18;;;1.90;;
1625;SDS011;806;48.770;9.156;2023-04-07T01:51:24;4.07;;;1.90;;
1625;SDS011;806;48.770;9.156;2023-04-07T01:53:54;4.20;;;2.10;;
1625;SDS011;806;48.770;9.156;2023-04-07T01:56:22;3.45;;;2.13;;
1625;SDS011;806;48.770;9.156;2023-04-07T01:58:49;3.20;;;1.90;;
1625;SDS011;806;48.770;9.156;2023-04-07T02:01:16;3.28;;;1.70;;
1625;SDS011;806;48.770;9.156;2023-04-07T02:03:45;3.40;;;1.70;;
1625;SDS011;806;48.770;9.156;2023-04-07T02:06:21;3.40;;;1.80;;
1625;SDS011;806;48.770;9.156;2023-04-07T02:08:53;3.20;;;1.50;;
1625;SDS011;806;48.770;9.156;2023-04-07T02:11:24;2.75;;;1.70;;
1625;SDS011;806;48.770;9.156;2023-04-07T02:13:53;3.45;;;1.60;;
1625;SDS011;806;48.770;9.156;2023-04-07T02:16:20;3.35;;;1.60;;
1625;SDS011;806;48.770;9.156;2023-04-07T02:18:48;3.10;;;1.77;;
1625;SDS011;806;48.770;9.156;2023-04-07T02:21:15;3.08;;;1.52;;
1625;SDS011;806;48.770;9.156;2023-04-07T02:23:45;3.50;;;1.50;;
1625;SDS011;806;48.770;9.156;2023-04-07T02:26:12;2.92;;;1.50;;
1625;SDS011;806;48.770;9.156;2023-04-07T02:28:39;2.95;;;1.65;;
1625;SDS011;806;48.770;9.156;2023-04-07T02:31:06;2.77;;;1.60;;
1625;SDS011;806;48.770;9.156;2023-04-07T02:33:33;3.75;;;1.70;;
1625;SDS011;806;48.770;9.156;2023-04-07T02:36:01;3.70;;;1.70;;
1625;SDS011;806;48.770;9.156;2023-04-07T02:38:28;2.60;;;1.42;;
1625;SDS011;806;48.770;9.156;2023-04-07T02:40:56;2.97;;;1.70;;
1625;SDS011;806;48.770;9.156;2023-04-07T02:43:24;2.90;;;1.40;;
1625;SDS011;806;48.770;9.156;2023-04-07T02:45:51;2.45;;;1.60;;
1625;SDS011;806;48.770;9.156;2023-04-07T02:48:18;3.60;;;1.70;;
1625;SDS011;806;48.770;9.156;2023-04-07T02:50:46;2.90;;;1.55;;
1625;SDS011;806;48.770;9.156;2023-04-07T02:53:13;3.00;;;1.92;;
1625;SDS011;806;48.770;9.156;2023-04-07T02:55:40;2.38;;;1.80;;
1625;SDS011;806;48.770;9.156;2023-04-07T02:58:08;3.00;;;1.60;;
1625;SDS011;806;48.770;9.156;2023-04-07T03:00:35;2.80;;;1.90;;
1625;SDS011;806;48.770;9.156;2023-04-07T03:03:03;2.55;;;1.70;;
1625;SDS011;806;48.770;9.156;2023-04-07T03:05:30;2.87;;;1.60;;
1625;SDS011;806;48.770;9.156;2023-04-07T03:07:57;3.75;;;1.80;;
1625;SDS011;806;48.770;9.156;2023-04-07T03:10:24;3.22;;;1.90;;
1625;SDS011;806;48.770;9.156;2023-04-07T03:12:51;2.85;;;1.60;;
1625;SDS011;806;48.770;9.156;2023-04-07T03:15:20;2.80;;;1.63;;
1625;SDS011;806;48.770;9.156;2023-04-07T03:17:47;2.90;;;1.50;;
1625;SDS011;806;48.770;9.156;2023-04-07T03:20:14;3.53;;;1.58;;
1625;SDS011;806;48.770;9.156;2023-04-07T03:22:41;2.33;;;1.50;;
1625;SDS011;806;48.770;9.156;2023-04-07T03:25:11;4.45;;;1.55;;
1625;SDS011;806;48.770;9.156;2023-04-07T03:27:38;2.60;;;1.70;;
1625;SDS011;806;48.770;9.156;2023-04-07T03:30:06;4.22;;;1.90;;
1625;SDS011;806;48.770;9.156;2023-04-07T03:32:35;3.67;;;2.15;;
1625;SDS011;806;48.770;9.156;2023-04-07T03:35:02;2.53;;;1.60;;
1625;SDS011;806;48.770;9.156;2023-04-07T03:37:30;2.80;;;1.70;;
1625;SDS011;806;48.770;9.156;2023-04-07T03:39:57;3.90;;;1.77;;
1625;SDS011;806;48.770;9.156;2023-04-07T03:42:24;2.80;;;1.75;;
1625;SDS011;806;48.770;9.156;2023-04-07T03:44:51;3.90;;;2.20;;
1625;SDS011;806;48.770;9.156;2023-04-07T03:47:18;3.35;;;1.98;;
1625;SDS011;806;48.770;9.156;2023-04-07T03:49:48;4.40;;;2.10;;
1625;SDS011;806;48.770;9.156;2023-04-07T03:52:15;2.78;;;1.70;;
1625;SDS011;806;48.770;9.156;2023-04-07T03:54:42;4.13;;;1.95;;
1625;SDS011;806;48.770;9.156;2023-04-07T03:57:09;4.15;;;1.65;;
1625;SDS011;806;48.770;9.156;2023-04-07T03:59:36;3.80;;;1.70;;
1625;SDS011;806;48.770;9.156;2023-04-07T04:02:04;2.80;;;2.00;;
1625;SDS011;806;48.770;9.156;2023-04-07T04:04:31;4.50;;;1.80;;
1625;SDS011;806;48.770;9.156;2023-04-07T04:06:59;3.30;;;2.30;;
1625;SDS011;806;48.770;9.156;2023-04-07T04:09:26;4.03;;;2.07;;
1625;SDS011;806;48.770;9.156;2023-04-07T04:11:56;3.22;;;1.88;;
1625;SDS011;806;48.770;9.156;2023-04-07T04:14:23;4.38;;;2.47;;
1625;SDS011;806;48.770;9.156;2023-04-07T04:16:50;3.90;;;1.70;;
1625;SDS011;806;48.770;9.156;2023-04-07T04:19:18;3.97;;;2.42;;
1625;SDS011;806;48.770;9.156;2023-04-07T04:21:45;5.00;;;2.77;;
1625;SDS011;806;48.770;9.156;2023-04-07T04:24:14;3.45;;;2.30;;
1625;SDS011;806;48.770;9.156;2023-04-07T04:26:41;3.47;;;1.85;;
1625;SDS011;806;48.770;9.156;2023-04-07T04:29:08;3.70;;;1.70;;
1625;SDS011;806;48.770;9.156;2023-04-07T04:31:35;3.23;;;2.00;;
1625;SDS011;806;48.770;9.156;2023-04-07T04:34:02;5.60;;;2.20;;
1625;SDS011;806;48.770;9.156;2023-04-07T04:36:29;3.92;;;1.88;;
1625;SDS011;806;48.770;9.156;2023-04-07T04:38:56;2.70;;;1.58;;
1625;SDS011;806;48.770;9.156;2023-04-07T04:41:25;3.40;;;1.70;;
1625;SDS011;806;48.770;9.156;2023-04-07T04:43:52;3.65;;;2.05;;
1625;SDS011;806;48.770;9.156;2023-04-07T04:46:19;3.67;;;2.10;;
1625;SDS011;806;48.770;9.156;2023-04-07T04:48:46;3.78;;;1.80;;
1625;SDS011;806;48.770;9.156;2023-04-07T04:51:13;3.08;;;1.92;;
1625;SDS011;806;48.770;9.156;2023-04-07T04:53:41;3.28;;;1.73;;
1625;SDS011;806;48.770;9.156;2023-04-07T04:56:08;2.40;;;1.50;;
1625;SDS011;806;48.770;9.156;2023-04-07T04:58:36;2.88;;;1.80;;
1625;SDS011;806;48.770;9.156;2023-04-07T05:01:06;4.28;;;2.00;;
1625;SDS011;806;48.770;9.156;2023-04-07T05:03:33;3.13;;;1.90;;
1625;SDS011;806;48.770;9.156;2023-04-07T05:06:00;2.40;;;1.50;;
1625;SDS011;806;48.770;9.156;2023-04-07T05:08:27;2.90;;;1.80;;
1625;SDS011;806;48.770;9.156;2023-04-07T05:10:54;3.33;;;2.25;;
1625;SDS011;806;48.770;9.156;2023-04-07T05:13:22;2.70;;;1.80;;
1625;SDS011;806;48.770;9.156;2023-04-07T05:15:51;3.70;;;2.00;;
1625;SDS011;806;48.770;9.156;2023-04-07T05:18:19;2.35;;;1.67;;
1625;SDS011;806;48.770;9.156;2023-04-07T05:20:47;3.50;;;1.50;;
1625;SDS011;806;48.770;9.156;2023-04-07T05:23:14;4.45;;;1.95;;
1625;SDS011;806;48.770;9.156;2023-04-07T05:25:41;3.47;;;2.15;;
1625;SDS011;806;48.770;9.156;2023-04-07T05:28:09;4.18;;;1.80;;
1625;SDS011;806;48.770;9.156;2023-04-07T05:30:36;5.20;;;2.30;;
1625;SDS011;806;48.770;9.156;2023-04-07T05:33:04;4.57;;;2.33;;
1625;SDS011;806;48.770;9.156;2023-04-07T05:35:31;3.05;;;1.90;;
1625;SDS011;806;48.770;9.156;2023-04-07T05:37:58;3.97;;;1.80;;
1625;SDS011;806;48.770;9.156;2023-04-07T05:40:26;2.90;;;1.60;;
1625;SDS011;806;48.770;9.156;2023-04-07T05:42:54;3.40;;;1.90;;
1625;SDS011;806;48.770;9.156;2023-04-07T05:45:21;3.30;;;2.10;;
1625;SDS011;806;48.770;9.156;2023-04-07T05:47:48;3.23;;;2.00;;
1625;SDS011;806;48.770;9.156;2023-04-07T05:50:17;3.15;;;1.88;;
1625;SDS011;806;48.770;9.156;2023-04-07T05:52:44;4.30;;;2.10;;
1625;SDS011;806;48.770;9.156;2023-04-07T05:55:11;3.47;;;1.60;;
1625;SDS011;806;48.770;9.156;2023-04-07T05:57:39;2.92;;;1.60;;
1625;SDS011;806;48.770;9.156;2023-04-07T06:00:06;3.20;;;1.80;;
1625;SDS011;806;48.770;9.156;2023-04-07T06:02:35;3.78;;;1.70;;
1625;SDS011;806;48.770;9.156;2023-04-07T06:05:04;3.15;;;1.77;;
1625;SDS011;806;48.770;9.156;2023-04-07T06:07:32;2.90;;;1.90;;
1625;SDS011;806;48.770;9.156;2023-04-07T06:10:00;4.32;;;1.92;;
1625;SDS011;806;48.770;9.156;2023-04-07T06:12:27;3.47;;;2.20;;
1625;SDS011;806;48.770;9.156;2023-04-07T06:14:54;4.47;;;2.30;;
1625;SDS011;806;48.770;9.156;2023-04-07T06:17:21;3.00;;;2.05;;
1625;SDS011;806;48.770;9.156;2023-04-07T06:19:49;3.80;;;1.73;;
1625;SDS011;806;48.770;9.156;2023-04-07T06:22:16;4.40;;;1.90;;
1625;SDS011;806;48.770;9.156;2023-04-07T06:24:44;5.28;;;2.60;;
1625;SDS011;806;48.770;9.156;2023-04-07T06:27:11;4.07;;;2.40;;
1625;SDS011;806;48.770;9.156;2023-04-07T06:29:38;3.38;;;2.20;;
1625;SDS011;806;48.770;9.156;2023-04-07T06:32:06;3.75;;;2.05;;
1625;SDS011;806;48.770;9.156;2023-04-07T06:34:33;3.90;;;2.40;;
1625;SDS011;806;48.770;9.156;2023-04-07T06:37:00;3.23;;;2.00;;
1625;SDS011;806;48.770;9.156;2023-04-07T06:39:28;3.15;;;1.90;;
1625;SDS011;806;48.770;9.156;2023-04-07T06:41:57;3.58;;;1.77;;
1625;SDS011;806;48.770;9.156;2023-04-07T06:44:25;3.00;;;2.30;;
1625;SDS011;806;48.770;9.156;2023-04-07T06:46:53;4.10;;;2.00;;
1625;SDS011;806;48.770;9.156;2023-04-07T06:49:20;4.15;;;2.10;;
1625;SDS011;806;48.770;9.156;2023-04-07T06:51:47;2.92;;;2.00;;
1625;SDS011;806;48.770;9.156;2023-04-07T06:54:14;5.22;;;2.25;;
1625;SDS011;806;48.770;9.156;2023-04-07T06:56:42;4.28;;;2.47;;
1625;SDS011;806;48.770;9.156;2023-04-07T06:59:11;3.85;;;2.28;;
1625;SDS011;806;48.770;9.156;2023-04-07T07:01:38;2.50;;;1.80;;
1625;SDS011;806;48.770;9.156;2023-04-07T07:04:06;5.00;;;1.88;;
1625;SDS011;806;48.770;9.156;2023-04-07T07:06:33;3.10;;;1.80;;
1625;SDS011;806;48.770;9.156;2023-04-07T07:09:00;3.80;;;2.00;;
1625;SDS011;806;48.770;9.156;2023-04-07T07:11:28;3.03;;;1.92;;
1625;SDS011;806;48.770;9.156;2023-04-07T07:13:55;2.70;;;1.75;;
1625;SDS011;806;48.770;9.156;2023-04-07T07:16:23;3.13;;;1.90;;
1625;SDS011;806;48.770;9.156;2023-04-07T07:18:51;3.60;;;2.00;;
1625;SDS011;806;48.770;9.156;2023-04-07T07:21:19;4.78;;;2.70;;
1625;SDS011;806;48.770;9.156;2023-04-07T07:23:47;4.25;;;1.90;;
1625;SDS011;806;48.770;9.156;2023-04-07T07:26:14;3.90;;;1.98;;
1625;SDS011;806;48.770;9.156;2023-04-07T07:28:41;3.17;;;2.20;;
1625;SDS011;806;48.770;9.156;2023-04-07T07:31:08;3.65;;;2.40;;
1625;SDS011;806;48.770;9.156;2023-04-07T07:33:38;4.85;;;3.00;;
1625;SDS011;806;48.770;9.156;2023-04-07T07:36:08;5.50;;;2.47;;
1625;SDS011;806;48.770;9.156;2023-04-07T07:38:35;5.28;;;2.50;;
1625;SDS011;806;48.770;9.156;2023-04-07T07:41:02;4.13;;;2.50;;
1625;SDS011;806;48.770;9.156;2023-04-07T07:43:30;4.68;;;2.90;;
1625;SDS011;806;48.770;9.156;2023-04-07T07:45:57;4.80;;;2.60;;
1625;SDS011;806;48.770;9.156;2023-04-07T07:48:24;4.25;;;2.20;;
1625;SDS011;806;48.770;9.156;2023-04-07T07:50:53;3.33;;;2.42;;
1625;SDS011;806;48.770;9.156;2023-04-07T07:53:21;3.00;;;2.10;;
1625;SDS011;806;48.770;9.156;2023-04-07T07:55:48;3.40;;;2.10;;
1625;SDS011;806;48.770;9.156;2023-04-07T07:58:15;3.33;;;2.30;;
1625;SDS011;806;48.770;9.156;2023-04-07T08:00:42;4.00;;;2.20;;
1625;SDS011;806;48.770;9.156;2023-04-07T08:03:10;3.30;;;1.90;;
1625;SDS011;806;48.770;9.156;2023-04-07T08:05:37;3.22;;;1.90;;
1625;SDS011;806;48.770;9.156;2023-04-07T08:08:06;3.90;;;1.90;;
1625;SDS011;806;48.770;9.156;2023-04-07T08:10:33;3.80;;;2.70;;
1625;SDS011;806;48.770;9.156;2023-04-07T08:13:00;5.07;;;2.40;;
1625;SDS011;806;48.770;9.156;2023-04-07T08:15:27;3.30;;;1.70;;
1625;SDS011;806;48.770;9.156;2023-04-07T08:17:54;3.40;;;1.90;;
1625;SDS011;806;48.770;9.156;2023-04-07T08:20:22;3.85;;;2.33;;
1625;SDS011;806;48.770;9.156;2023-04-07T08:22:49;2.70;;;1.80;;
1625;SDS011;806;48.770;9.156;2023-04-07T08:25:17;3.20;;;1.40;;
1625;SDS011;806;48.770;9.156;2023-04-07T08:27:45;4.15;;;1.50;;
1625;SDS011;806;48.770;9.156;2023-04-07T08:30:12;3.47;;;1.50;;
1625;SDS011;806;48.770;9.156;2023-04-07T08:32:41;2.30;;;1.60;;
1625;SDS011;806;48.770;9.156;2023-04-07T08:35:10;3.42;;;1.70;;
1625;SDS011;806;48.770;9.156;2023-04-07T08:37:37;3.28;;;1.63;;
1625;SDS011;806;48.770;9.156;2023-04-07T08:40:06;2.78;;;1.50;;
1625;SDS011;806;48.770;9.156;2023-04-07T08:42:36;2.30;;;1.38;;
1625;SDS011;806;48.770;9.156;2023-04-07T08:45:08;2.30;;;1.50;;
1625;SDS011;806;48.770;9.156;2023-04-07T08:47:35;3.30;;;1.80;;
1625;SDS011;806;48.770;9.156;2023-04-07T08:50:05;2.27;;;1.40;;
1625;SDS011;806;48.770;9.156;2023-04-07T08:52:33;2.60;;;1.43;;
1625;SDS011;806;48.770;9.156;2023-04-07T08:55:05;2.37;;;1.50;;
1625;SDS011;806;48.770;9.156;2023-04-07T08:57:35;3.50;;;1.30;;
1625;SDS011;806;48.770;9.156;2023-04-07T09:00:03;2.88;;;1.60;;
1625;SDS011;806;48.770;9.156;2023-04-07T09:02:31;1.80;;;1.20;;
1625;SDS011;806;48.770;9.156;2023-04-07T09:04:59;2.87;;;1.20;;
1625;SDS011;806;48.770;9.156;2023-04-07T09:07:29;1.83;;;1.33;;
1625;SDS011;806;48.770;9.156;2023-04-07T09:09:57;4.90;;;2.10;;
1625;SDS011;806;48.770;9.156;2023-04-07T09:12:24;4.60;;;3.22;;
1625;SDS011;806;48.770;9.156;2023-04-07T09:14:53;2.13;;;1.58;;
1625;SDS011;806;48.770;9.156;2023-04-07T09:17:21;2.10;;;1.40;;
1625;SDS011;806;48.770;9.156;2023-04-07T09:19:50;2.47;;;1.40;;
1625;SDS011;806;48.770;9.156;2023-04-07T09:22:33;2.63;;;1.40;;
1625;SDS011;806;48.770;9.156;2023-04-07T09:27:54;1.90;;;1.30;;
1625;SDS011;806;48.770;9.156;2023-04-07T09:30:23;2.33;;;1.40;;
1625;SDS011;806;48.770;9.156;2023-04-07T09:32:52;2.55;;;1.30;;
1625;SDS011;806;48.770;9.156;2023-04-07T09:35:19;1.65;;;1.10;;
1625;SDS011;806;48.770;9.156;2023-04-07T09:37:59;1.90;;;1.20;;
1625;SDS011;806;48.770;9.156;2023-04-07T09:40:28;3.00;;;1.30;;
1625;SDS011;806;48.770;9.156;2023-04-07T09:42:55;3.20;;;1.30;;
1625;SDS011;806;48.770;9.156;2023-04-07T09:45:25;1.60;;;1.20;;
1625;SDS011;806;48.770;9.156;2023-04-07T09:47:53;2.90;;;1.20;;
1625;SDS011;806;48.770;9.156;2023-04-07T09:50:29;2.20;;;1.30;;
1625;SDS011;806;48.770;9.156;2023-04-07T09:52:59;2.28;;;1.20;;
1625;SDS011;806;48.770;9.156;2023-04-07T09:55:27;2.67;;;1.50;;
1625;SDS011;806;48.770;9.156;2023-04-07T09:57:55;1.42;;;1.00;;
1625;SDS011;806;48.770;9.156;2023-04-07T10:00:22;3.65;;;1.40;;
1625;SDS011;806;48.770;9.156;2023-04-07T10:02:51;1.90;;;1.30;;
1625;SDS011;806;48.770;9.156;2023-04-07T10:05:19;2.65;;;1.40;;
1625;SDS011;806;48.770;9.156;2023-04-07T10:07:49;2.90;;;1.30;;
1625;SDS011;806;48.770;9.156;2023-04-07T10:10:16;3.73;;;1.50;;
1625;SDS011;806;48.770;9.156;2023-04-07T10:12:43;2.63;;;1.30;;
1625;SDS011;806;48.770;9.156;2023-04-07T10:15:11;1.80;;;1.38;;
1625;SDS011;806;48.770;9.156;2023-04-07T10:17:41;3.65;;;1.20;;
1625;SDS011;806;48.770;9.156;2023-04-07T10:20:13;2.75;;;1.30;;
1625;SDS011;806;48.770;9.156;2023-04-07T10:22:42;2.67;;;1.45;;
1625;SDS011;806;48.770;9.156;2023-04-07T10:25:12;2.50;;;1.10;;
1625;SDS011;806;48.770;9.156;2023-04-07T10:27:43;2.30;;;1.40;;
1625;SDS011;806;48.770;9.156;2023-04-07T10:30:16;2.60;;;1.43;;
1625;SDS011;806;48.770;9.156;2023-04-07T10:32:47;2.53;;;1.35;;
1625;SDS011;806;48.770;9.156;2023-04-07T10:35:16;3.50;;;1.30;;
1625;SDS011;806;48.770;9.156;2023-04-07T10:40:39;2.05;;;1.20;;
1625;SDS011;806;48.770;9.156;2023-04-07T10:43:07;2.20;;;1.20;;
1625;SDS011;806;48.770;9.156;2023-04-07T10:45:53;4.00;;;1.40;;
1625;SDS011;806;48.770;9.156;2023-04-07T10:48:25;1.80;;;1.10;;
1625;SDS011;806;48.770;9.156;2023-04-07T10:51:13;2.50;;;1.15;;
1625;SDS011;806;48.770;9.156;2023-04-07T10:59:34;2.55;;;1.38;;
1625;SDS011;806;48.770;9.156;2023-04-07T11:04:59;2.08;;;1.30;;
1625;SDS011;806;48.770;9.156;2023-04-07T11:07:43;1.60;;;1.10;;
1625;SDS011;806;48.770;9.156;2023-04-07T11:10:13;2.95;;;1.23;;
1625;SDS011;806;48.770;9.156;2023-04-07T11:12:43;1.63;;;1.08;;
1625;SDS011;806;48.770;9.156;2023-04-07T11:15:22;2.50;;;1.27;;
1625;SDS011;806;48.770;9.156;2023-04-07T11:18:05;2.00;;;1.27;;
1625;SDS011;806;48.770;9.156;2023-04-07T11:20:45;3.50;;;1.20;;
1625;SDS011;806;48.770;9.156;2023-04-07T11:23:17;2.00;;;1.50;;
1625;SDS011;806;48.770;9.156;2023-04-07T11:25:48;2.28;;;1.10;;
1625;SDS011;806;48.770;9.156;2023-04-07T11:28:16;2.13;;;1.10;;
1625;SDS011;806;48.770;9.156;2023-04-07T11:30:44;2.55;;;1.30;;
1625;SDS011;806;48.770;9.156;2023-04-07T11:33:14;2.30;;;1.30;;
1625;SDS011;806;48.770;9.156;2023-04-07T11:35:53;2.60;;;1.20;;
1625;SDS011;806;48.770;9.156;2023-04-07T11:38:22;1.70;;;1.10;;
1625;SDS011;806;48.770;9.156;2023-04-07T11:40:51;2.20;;;1.20;;
1625;SDS011;806;48.770;9.156;2023-04-07T11:43:19;2.53;;;1.30;;
1625;SDS011;806;48.770;9.156;2023-04-07T11:46:07;1.60;;;1.10;;
1625;SDS011;806;48.770;9.156;2023-04-07T11:48:35;2.40;;;1.20;;
1625;SDS011;806;48.770;9.156;2023-04-07T11:51:05;2.65;;;1.00;;
1625;SDS011;806;48.770;9.156;2023-04-07T11:53:41;3.10;;;1.00;;
1625;SDS011;806;48.770;9.156;2023-04-07T11:56:09;2.70;;;1.00;;
1625;SDS011;806;48.770;9.156;2023-04-07T11:58:45;2.63;;;1.20;;
1625;SDS011;806;48.770;9.156;2023-04-07T12:01:13;2.92;;;1.40;;
1625;SDS011;806;48.770;9.156;2023-04-07T12:03:53;2.30;;;1.50;;
1625;SDS011;806;48.770;9.156;2023-04-07T12:06:27;3.83;;;1.40;;
1625;SDS011;806;48.770;9.156;2023-04-07T12:08:57;3.72;;;1.80;;
1625;SDS011;806;48.770;9.156;2023-04-07T12:11:24;2.63;;;1.55;;
1625;SDS011;806;48.770;9.156;2023-04-07T12:13:51;2.83;;;1.50;;
1625;SDS011;806;48.770;9.156;2023-04-07T12:16:19;1.98;;;1.40;;
1625;SDS011;806;48.770;9.156;2023-04-07T12:18:47;2.10;;;1.30;;
1625;SDS011;806;48.770;9.156;2023-04-07T12:21:15;2.30;;;1.70;;
1625;SDS011;806;48.770;9.156;2023-04-07T12:23:44;3.08;;;1.50;;
1625;SDS011;806;48.770;9.156;2023-04-07T12:26:11;2.65;;;1.70;;
1625;SDS011;806;48.770;9.156;2023-04-07T12:28:39;2.37;;;1.37;;
1625;SDS011;806;48.770;9.156;2023-04-07T12:31:06;1.60;;;1.10;;
1625;SDS011;806;48.770;9.156;2023-04-07T12:33:34;2.30;;;1.10;;
1625;SDS011;806;48.770;9.156;2023-04-07T12:36:01;2.10;;;1.00;;
1625;SDS011;806;48.770;9.156;2023-04-07T12:38:28;1.40;;;1.00;;
1625;SDS011;806;48.770;9.156;2023-04-07T12:40:57;2.30;;;1.00;;
1625;SDS011;806;48.770;9.156;2023-04-07T12:43:27;2.10;;;1.00;;
1625;SDS011;806;48.770;9.156;2023-04-07T12:45:54;1.63;;;1.10;;
1625;SDS011;806;48.770;9.156;2023-04-07T12:48:21;1.40;;;1.00;;
1625;SDS011;806;48.770;9.156;2023-04-07T12:50:49;1.77;;;0.95;;
1625;SDS011;806;48.770;9.156;2023-04-07T12:53:16;2.60;;;1.10;;
1625;SDS011;806;48.770;9.156;2023-04-07T12:55:43;1.30;;;0.90;;
1625;SDS011;806;48.770;9.156;2023-04-07T12:58:12;1.30;;;0.80;;
1625;SDS011;806;48.770;9.156;2023-04-07T13:00:39;2.03;;;1.00;;
1625;SDS011;806;48.770;9.156;2023-04-07T13:03:06;3.00;;;1.00;;
1625;SDS011;806;48.770;9.156;2023-04-07T13:05:34;1.90;;;0.90;;
1625;SDS011;806;48.770;9.156;2023-04-07T13:08:01;1.58;;;0.80;;
1625;SDS011;806;48.770;9.156;2023-04-07T13:10:28;1.50;;;0.80;;
1625;SDS011;806;48.770;9.156;2023-04-07T13:12:55;1.23;;;0.80;;
1625;SDS011;806;48.770;9.156;2023-04-07T13:15:24;1.53;;;0.70;;
1625;SDS011;806;48.770;9.156;2023-04-07T13:17:52;1.20;;;0.60;;
1625;SDS011;806;48.770;9.156;2023-04-07T13:20:19;1.10;;;0.60;;
1625;SDS011;806;48.770;9.156;2023-04-07T13:22:46;1.38;;;0.70;;
1625;SDS011;806;48.770;9.156;2023-04-07T13:25:14;0.90;;;0.50;;
1625;SDS011;806;48.770;9.156;2023-04-07T13:27:41;0.83;;;0.60;;
1625;SDS011;806;48.770;9.156;2023-04-07T13:30:08;1.40;;;0.50;;
1625;SDS011;806;48.770;9.156;2023-04-07T13:32:37;0.85;;;0.52;;
1625;SDS011;806;48.770;9.156;2023-04-07T13:35:06;0.90;;;0.50;;
1625;SDS011;806;48.770;9.156;2023-04-07T13:37:33;1.30;;;0.60;;
1625;SDS011;806;48.770;9.156;2023-04-07T13:40:00;0.80;;;0.70;;
1625;SDS011;806;48.770;9.156;2023-04-07T13:42:27;1.15;;;0.60;;
1625;SDS011;806;48.770;9.156;2023-04-07T13:44:55;0.80;;;0.60;;
1625;SDS011;806;48.770;9.156;2023-04-07T13:47:22;1.30;;;0.60;;
1625;SDS011;806;48.770;9.156;2023-04-07T13:49:50;1.90;;;0.60;;
1625;SDS011;806;48.770;9.156;2023-04-07T13:52:18;1.00;;;0.60;;
1625;SDS011;806;48.770;9.156;2023-04-07T13:54:46;1.00;;;0.50;;
1625;SDS011;806;48.770;9.156;2023-04-07T13:57:13;0.90;;;0.60;;
1625;SDS011;806;48.770;9.156;2023-04-07T13:59:44;0.80;;;0.50;;
1625;SDS011;806;48.770;9.156;2023-04-07T14:02:12;1.30;;;0.60;;
1625;SDS011;806;48.770;9.156;2023-04-07T14:04:39;0.90;;;0.60;;
1625;SDS011;806;48.770;9.156;2023-04-07T14:07:07;1.30;;;0.60;;
1625;SDS011;806;48.770;9.156;2023-04-07T14:09:35;1.10;;;0.65;;
1625;SDS011;806;48.770;9.156;2023-04-07T14:12:03;0.70;;;0.60;;
1625;SDS011;806;48.770;9.156;2023-04-07T14:14:31;1.30;;;0.70;;
1625;SDS011;806;48.770;9.156;2023-04-07T14:16:58;1.50;;;0.70;;
1625;SDS011;806;48.770;9.156;2023-04-07T14:19:25;1.55;;;0.70;;
1625;SDS011;806;48.770;9.156;2023-04-07T14:21:52;1.00;;;0.80;;
1625;SDS011;806;48.770;9.156;2023-04-07T14:24:21;1.85;;;0.80;;
1625;SDS011;806;48.770;9.156;2023-04-07T14:26:49;2.00;;;0.75;;
1625;SDS011;806;48.770;9.156;2023-04-07T14:29:19;2.10;;;0.80;;
1625;SDS011;806;48.770;9.156;2023-04-07T14:31:46;2.30;;;0.80;;
1625;SDS011;806;48.770;9.156;2023-04-07T14:34:13;1.70;;;0.90;;
1625;SDS011;806;48.770;9.156;2023-04-07T14:36:41;1.60;;;0.90;;
1625;SDS011;806;48.770;9.156;2023-04-07T14:39:17;1.50;;;0.90;;
1625;SDS011;806;48.770;9.156;2023-04-07T14:41:49;1.30;;;1.00;;
1625;SDS011;806;48.770;9.156;2023-04-07T14:44:18;1.85;;;1.10;;
1625;SDS011;806;48.770;9.156;2023-04-07T14:46:46;2.15;;;1.10;;
1625;SDS011;806;48.770;9.156;2023-04-07T14:49:13;1.70;;;1.10;;
1625;SDS011;806;48.770;9.156;2023-04-07T14:51:41;1.98;;;1.00;;
1625;SDS011;806;48.770;9.156;2023-04-07T14:54:09;2.17;;;1.40;;
1625;SDS011;806;48.770;9.156;2023-04-07T14:56:37;1.80;;;1.30;;
1625;SDS011;806;48.770;9.156;2023-04-07T14:59:05;2.25;;;1.10;;
1625;SDS011;806;48.770;9.156;2023-04-07T15:01:32;2.30;;;1.20;;
1625;SDS011;806;48.770;9.156;2023-04-07T15:03:59;1.40;;;1.10;;
1625;SDS011;806;48.770;9.156;2023-04-07T15:06:26;1.70;;;1.20;;
1625;SDS011;806;48.770;9.156;2023-04-07T15:08:54;1.60;;;1.00;;
1625;SDS011;806;48.770;9.156;2023-04-07T15:11:21;1.30;;;0.90;;
1625;SDS011;806;48.770;9.156;2023-04-07T15:13:49;1.10;;;0.80;;
1625;SDS011;806;48.770;9.156;2023-04-07T15:16:16;1.00;;;0.80;;
1625;SDS011;806;48.770;9.156;2023-04-07T15:18:44;0.93;;;0.70;;
1625;SDS011;806;48.770;9.156;2023-04-07T15:21:12;1.20;;;0.90;;
1625;SDS011;806;48.770;9.156;2023-04-07T15:23:40;1.30;;;0.90;;
1625;SDS011;806;48.770;9.156;2023-04-07T15:26:07;1.55;;;0.90;;
1625;SDS011;806;48.770;9.156;2023-04-07T15:28:35;1.53;;;0.90;;
1625;SDS011;806;48.770;9.156;2023-04-07T15:31:03;2.78;;;1.00;;
1625;SDS011;806;48.770;9.156;2023-04-07T15:33:34;1.40;;;0.90;;
1625;SDS011;806;48.770;9.156;2023-04-07T15:36:01;2.00;;;0.90;;
1625;SDS011;806;48.770;9.156;2023-04-07T15:38:29;1.67;;;1.10;;
1625;SDS011;806;48.770;9.156;2023-04-07T15:40:56;1.70;;;1.08;;
1625;SDS011;806;48.770;9.156;2023-04-07T15:43:23;1.37;;;1.00;;
1625;SDS011;806;48.770;9.156;2023-04-07T15:45:50;2.05;;;1.20;;
1625;SDS011;806;48.770;9.156;2023-04-07T15:48:21;1.38;;;1.00;;
1625;SDS011;806;48.770;9.156;2023-04-07T15:50:49;1.38;;;1.00;;
1625;SDS011;806;48.770;9.156;2023-04-07T15:53:16;1.92;;;1.10;;
1625;SDS011;806;48.770;9.156;2023-04-07T15:55:43;1.92;;;1.10;;
1625;SDS011;806;48.770;9.156;2023-04-07T15:58:10;1.30;;;1.10;;